createdAt,value
2022-10-13T00:00:26.193Z,17.10
2022-10-13T00:00:56.816Z,18.30
2022-10-13T00:01:27.416Z,15.70
2022-10-13T00:01:57.956Z,17.30
2022-10-13T00:02:28.523Z,18.60
2022-10-13T00:02:59.103Z,19.80
2022-10-13T00:03:29.674Z,20.90
2022-10-13T00:04:00.268Z,17.00
2022-10-13T00:04:30.905Z,20.40
2022-10-13T00:05:01.459Z,16.60
2022-10-13T00:05:32.008Z,16.00
2022-10-13T00:06:02.589Z,15.80
2022-10-13T00:06:33.142Z,20.00
2022-10-13T00:07:03.714Z,15.20
2022-10-13T00:07:34.290Z,23.40
2022-10-13T00:08:04.841Z,20.50
2022-10-13T00:08:35.404Z,18.30
2022-10-13T00:09:05.982Z,16.20
2022-10-13T00:09:36.552Z,20.90
2022-10-13T00:10:07.110Z,19.70
2022-10-13T00:10:37.700Z,20.70
2022-10-13T00:11:08.252Z,16.30
2022-10-13T00:11:38.843Z,17.70
2022-10-13T00:12:09.407Z,19.80
2022-10-13T00:12:39.970Z,18.30
2022-10-13T00:13:10.918Z,17.00
2022-10-13T00:13:41.481Z,21.10
2022-10-13T00:14:12.074Z,16.10
2022-10-13T00:14:42.635Z,19.40
2022-10-13T00:15:13.194Z,19.00
2022-10-13T00:15:43.790Z,18.60
2022-10-13T00:16:14.345Z,19.70
2022-10-13T00:16:44.928Z,20.40
2022-10-13T00:17:15.481Z,19.90
2022-10-13T00:17:46.050Z,19.30
2022-10-13T00:18:16.644Z,15.70
2022-10-13T00:18:47.194Z,18.20
2022-10-13T00:19:17.758Z,20.80
2022-10-13T00:19:48.309Z,22.80
2022-10-13T00:20:18.862Z,20.30
2022-10-13T00:20:49.449Z,21.30
2022-10-13T00:21:20.027Z,16.50
2022-10-13T00:21:50.579Z,17.90
2022-10-13T00:22:21.476Z,16.40
2022-10-13T00:22:51.707Z,22.70
2022-10-13T00:23:22.228Z,16.50
2022-10-13T00:23:52.787Z,17.90
2022-10-13T00:24:23.361Z,18.00
2022-10-13T00:24:53.916Z,19.00
2022-10-13T00:25:24.491Z,27.50
2022-10-13T00:25:55.053Z,14.70
2022-10-13T00:26:25.656Z,18.50
2022-10-13T00:26:56.242Z,18.40
2022-10-13T00:27:26.785Z,15.00
2022-10-13T00:27:57.343Z,16.40
2022-10-13T00:28:27.940Z,17.40
2022-10-13T00:28:58.534Z,15.70
2022-10-13T00:29:29.111Z,15.90
2022-10-13T00:29:59.675Z,15.00
2022-10-13T00:30:30.219Z,21.60
2022-10-13T00:31:00.773Z,15.40
2022-10-13T00:31:31.345Z,22.80
2022-10-13T00:32:01.894Z,16.40
2022-10-13T00:32:32.480Z,18.70
2022-10-13T00:33:03.047Z,16.40
2022-10-13T00:33:33.593Z,14.50
2022-10-13T00:34:04.173Z,14.80
2022-10-13T00:34:34.745Z,17.90
2022-10-13T00:35:05.347Z,15.40
2022-10-13T00:35:35.892Z,15.00
2022-10-13T00:36:06.454Z,12.80
2022-10-13T00:36:37.004Z,13.10
2022-10-13T00:37:07.576Z,12.40
2022-10-13T00:37:38.163Z,16.50
2022-10-13T00:38:08.739Z,13.90
2022-10-13T00:38:39.308Z,12.40
2022-10-13T00:39:09.879Z,18.80
2022-10-13T00:39:40.405Z,16.10
2022-10-13T00:40:10.976Z,15.10
2022-10-13T00:40:41.536Z,14.30
2022-10-13T00:41:12.109Z,14.90
2022-10-13T00:41:42.680Z,13.30
2022-10-13T00:42:13.253Z,15.50
2022-10-13T00:42:43.808Z,18.40
2022-10-13T00:43:14.352Z,15.40
2022-10-13T00:43:44.921Z,15.90
2022-10-13T00:44:15.501Z,13.60
2022-10-13T00:44:46.070Z,12.50
2022-10-13T00:45:16.595Z,15.20
2022-10-13T00:45:47.134Z,14.80
2022-10-13T00:46:17.711Z,15.30
2022-10-13T00:46:48.282Z,14.90
2022-10-13T00:47:18.849Z,13.20
2022-10-13T00:47:49.401Z,14.80
2022-10-13T00:48:19.989Z,17.30
2022-10-13T00:48:50.572Z,15.10
2022-10-13T00:49:21.221Z,16.30
2022-10-13T00:49:51.744Z,13.30
2022-10-13T00:50:22.417Z,17.30
2022-10-13T00:50:52.948Z,14.10
2022-10-13T00:51:23.488Z,14.50
2022-10-13T00:51:54.068Z,15.10
2022-10-13T00:52:24.633Z,14.70
2022-10-13T00:52:55.183Z,16.70
2022-10-13T00:53:25.757Z,13.60
2022-10-13T00:53:56.315Z,15.60
2022-10-13T00:54:26.863Z,16.40
2022-10-13T00:54:57.434Z,15.30
2022-10-13T00:55:28.027Z,13.80
2022-10-13T00:55:58.602Z,17.40
2022-10-13T00:56:29.174Z,17.70
2022-10-13T00:56:59.730Z,15.10
2022-10-13T00:57:30.278Z,15.80
2022-10-13T00:58:04.956Z,13.80
2022-10-13T00:58:31.837Z,15.10
2022-10-13T00:59:02.414Z,14.90
2022-10-13T00:59:32.989Z,13.40
2022-10-13T01:00:03.516Z,15.70
2022-10-13T01:00:34.169Z,14.00
2022-10-13T01:01:04.775Z,17.70
2022-10-13T01:01:35.323Z,12.60
2022-10-13T01:02:05.863Z,12.30
2022-10-13T01:02:36.437Z,15.00
2022-10-13T01:03:06.988Z,16.90
2022-10-13T01:03:37.539Z,16.10
2022-10-13T01:04:08.124Z,13.70
2022-10-13T01:04:38.743Z,14.20
2022-10-13T01:05:09.318Z,17.30
2022-10-13T01:05:39.931Z,13.00
2022-10-13T01:06:10.459Z,13.00
2022-10-13T01:06:41.006Z,12.20
2022-10-13T01:07:11.584Z,12.80
2022-10-13T01:07:42.133Z,16.20
2022-10-13T01:08:12.673Z,12.90
2022-10-13T01:08:43.214Z,16.50
2022-10-13T01:09:13.823Z,16.70
2022-10-13T01:09:44.424Z,15.20
2022-10-13T01:10:14.982Z,17.40
2022-10-13T01:10:45.527Z,18.70
2022-10-13T01:11:16.118Z,16.60
2022-10-13T01:11:46.672Z,18.60
2022-10-13T01:12:17.635Z,16.90
2022-10-13T01:12:47.885Z,18.30
2022-10-13T01:13:18.449Z,14.90
2022-10-13T01:13:48.978Z,16.30
2022-10-13T01:14:19.520Z,15.90
2022-10-13T01:14:50.058Z,12.70
2022-10-13T01:15:20.618Z,14.30
2022-10-13T01:15:51.149Z,16.30
2022-10-13T01:16:21.752Z,17.10
2022-10-13T01:16:52.293Z,17.60
2022-10-13T01:17:22.831Z,16.40
2022-10-13T01:17:53.401Z,14.60
2022-10-13T01:18:23.983Z,14.30
2022-10-13T01:18:54.549Z,18.00
2022-10-13T01:19:25.124Z,15.60
2022-10-13T01:19:55.689Z,14.60
2022-10-13T01:20:26.258Z,16.40
2022-10-13T01:20:56.809Z,15.10
2022-10-13T01:21:27.362Z,16.50
2022-10-13T01:21:57.939Z,15.30
2022-10-13T01:22:28.510Z,12.10
2022-10-13T01:22:59.091Z,15.70
2022-10-13T01:23:29.671Z,17.20
2022-10-13T01:24:00.235Z,15.20
2022-10-13T01:24:30.790Z,12.90
2022-10-13T01:25:01.342Z,13.90
2022-10-13T01:25:31.893Z,15.20
2022-10-13T01:26:02.425Z,18.40
2022-10-13T01:26:32.995Z,15.10
2022-10-13T01:27:03.535Z,13.20
2022-10-13T01:27:34.117Z,18.40
2022-10-13T01:28:04.693Z,15.00
2022-10-13T01:28:35.303Z,19.00
2022-10-13T01:29:05.868Z,16.80
2022-10-13T01:29:36.420Z,17.60
2022-10-13T01:30:07.003Z,22.30
2022-10-13T01:30:37.533Z,18.30
2022-10-13T01:31:08.085Z,12.90
2022-10-13T01:31:38.635Z,15.00
2022-10-13T01:32:09.191Z,18.00
2022-10-13T01:32:39.782Z,16.20
2022-10-13T01:33:10.363Z,17.10
2022-10-13T01:33:40.942Z,14.10
2022-10-13T01:34:11.482Z,13.90
2022-10-13T01:34:42.045Z,13.00
2022-10-13T01:35:12.594Z,15.00
2022-10-13T01:35:43.166Z,19.60
2022-10-13T01:36:13.780Z,10.20
2022-10-13T01:36:44.306Z,15.80
2022-10-13T01:37:14.857Z,17.90
2022-10-13T01:37:45.423Z,13.10
2022-10-13T01:38:15.994Z,14.20
2022-10-13T01:38:46.586Z,11.10
2022-10-13T01:39:17.151Z,17.40
2022-10-13T01:39:47.728Z,14.20
2022-10-13T01:40:18.278Z,15.10
2022-10-13T01:40:48.853Z,15.10
2022-10-13T01:41:19.394Z,18.80
2022-10-13T01:41:49.968Z,12.70
2022-10-13T01:42:20.908Z,14.30
2022-10-13T01:42:51.178Z,12.50
2022-10-13T01:43:21.759Z,13.00
2022-10-13T01:43:52.349Z,16.20
2022-10-13T01:44:22.903Z,13.30
2022-10-13T01:44:53.470Z,12.80
2022-10-13T01:45:24.030Z,12.10
2022-10-13T01:45:54.577Z,12.90
2022-10-13T01:46:25.141Z,14.70
2022-10-13T01:46:55.726Z,12.80
2022-10-13T01:47:26.298Z,13.40
2022-10-13T01:47:56.846Z,13.50
2022-10-13T01:48:27.425Z,11.70
2022-10-13T01:48:57.993Z,14.50
2022-10-13T01:49:28.555Z,12.50
2022-10-13T01:49:59.124Z,15.80
2022-10-13T01:50:29.687Z,12.80
2022-10-13T01:51:00.231Z,14.10
2022-10-13T01:51:30.807Z,14.80
2022-10-13T01:52:01.356Z,13.90
2022-10-13T01:52:31.943Z,12.50
2022-10-13T01:53:02.486Z,11.90
2022-10-13T01:53:33.033Z,13.20
2022-10-13T01:54:03.649Z,14.70
2022-10-13T01:54:34.207Z,14.60
2022-10-13T01:55:04.788Z,11.10
2022-10-13T01:55:35.369Z,11.80
2022-10-13T01:56:05.928Z,15.30
2022-10-13T01:56:36.464Z,13.10
2022-10-13T01:57:07.018Z,10.70
2022-10-13T01:57:37.576Z,12.20
2022-10-13T01:58:08.139Z,13.60
2022-10-13T01:58:38.685Z,13.30
2022-10-13T01:59:09.285Z,12.20
2022-10-13T01:59:39.830Z,12.20
2022-10-13T02:00:10.427Z,13.80
2022-10-13T02:00:41.054Z,14.40
2022-10-13T02:01:11.634Z,13.70
2022-10-13T02:01:42.179Z,14.30
2022-10-13T02:02:12.747Z,16.50
2022-10-13T02:02:43.308Z,13.50
2022-10-13T02:03:13.885Z,12.50
2022-10-13T02:03:44.478Z,12.80
2022-10-13T02:04:15.042Z,13.30
2022-10-13T02:04:45.624Z,12.60
2022-10-13T02:05:16.188Z,13.10
2022-10-13T02:05:46.768Z,14.90
2022-10-13T02:06:17.359Z,13.60
2022-10-13T02:06:47.945Z,14.70
2022-10-13T02:07:18.478Z,15.60
2022-10-13T02:07:49.064Z,14.20
2022-10-13T02:08:19.634Z,12.80
2022-10-13T02:08:50.181Z,12.90
2022-10-13T02:09:20.753Z,12.50
2022-10-13T02:09:51.354Z,12.50
2022-10-13T02:10:21.933Z,13.90
2022-10-13T02:10:52.472Z,15.10
2022-10-13T02:11:23.033Z,13.30
2022-10-13T02:11:53.573Z,15.60
2022-10-13T02:12:24.130Z,12.90
2022-10-13T02:12:54.676Z,12.80
2022-10-13T02:13:25.258Z,14.30
2022-10-13T02:13:55.781Z,12.80
2022-10-13T02:14:26.325Z,14.20
2022-10-13T02:14:56.911Z,13.90
2022-10-13T02:15:27.486Z,12.00
2022-10-13T02:15:58.080Z,13.40
2022-10-13T02:16:28.610Z,13.40
2022-10-13T02:16:59.202Z,12.70
2022-10-13T02:17:29.787Z,11.80
2022-10-13T02:18:00.363Z,14.30
2022-10-13T02:18:30.894Z,13.90
2022-10-13T02:19:01.474Z,13.00
2022-10-13T02:19:32.013Z,15.60
2022-10-13T02:20:02.601Z,12.70
2022-10-13T02:20:33.197Z,11.90
2022-10-13T02:21:03.739Z,13.10
2022-10-13T02:21:34.322Z,13.30
2022-10-13T02:22:04.952Z,12.60
2022-10-13T02:22:35.482Z,13.10
2022-10-13T02:23:06.081Z,11.10
2022-10-13T02:23:36.633Z,12.40
2022-10-13T02:24:07.197Z,14.40
2022-10-13T02:24:37.769Z,13.70
2022-10-13T02:25:08.335Z,14.70
2022-10-13T02:25:38.865Z,12.20
2022-10-13T02:26:09.414Z,16.20
2022-10-13T02:26:39.993Z,14.10
2022-10-13T02:27:10.568Z,15.20
2022-10-13T02:27:41.120Z,15.90
2022-10-13T02:28:11.736Z,13.80
2022-10-13T02:28:42.371Z,16.40
2022-10-13T02:29:12.902Z,13.60
2022-10-13T02:29:43.459Z,15.50
2022-10-13T02:30:14.042Z,13.90
2022-10-13T02:30:44.615Z,14.40
2022-10-13T02:31:15.200Z,13.30
2022-10-13T02:31:45.762Z,16.40
2022-10-13T02:32:16.765Z,15.90
2022-10-13T02:32:47.052Z,15.60
2022-10-13T02:33:17.615Z,14.60
2022-10-13T02:33:48.171Z,14.40
2022-10-13T02:34:18.751Z,15.60
2022-10-13T02:34:49.299Z,17.40
2022-10-13T02:35:19.854Z,16.30
2022-10-13T02:35:50.413Z,14.40
2022-10-13T02:36:20.992Z,12.90
2022-10-13T02:36:51.547Z,15.30
2022-10-13T02:37:22.146Z,15.10
2022-10-13T02:37:52.695Z,15.00
2022-10-13T02:38:23.239Z,14.30
2022-10-13T02:38:53.777Z,15.60
2022-10-13T02:39:24.351Z,15.70
2022-10-13T02:39:54.935Z,16.50
2022-10-13T02:40:25.491Z,15.20
2022-10-13T02:40:56.037Z,17.00
2022-10-13T02:41:26.626Z,15.40
2022-10-13T02:41:57.224Z,15.60
2022-10-13T02:42:27.793Z,14.70
2022-10-13T02:42:58.667Z,13.60
2022-10-13T02:43:29.274Z,15.50
2022-10-13T02:43:59.852Z,15.50
2022-10-13T02:44:30.402Z,13.50
2022-10-13T02:45:00.958Z,14.80
2022-10-13T02:45:31.528Z,15.40
2022-10-13T02:46:02.053Z,14.10
2022-10-13T02:46:32.655Z,14.00
2022-10-13T02:47:03.210Z,12.70
2022-10-13T02:47:33.752Z,15.40
2022-10-13T02:48:04.289Z,13.70
2022-10-13T02:48:34.819Z,16.30
2022-10-13T02:49:05.381Z,14.80
2022-10-13T02:49:35.953Z,14.20
2022-10-13T02:50:06.503Z,12.30
2022-10-13T02:50:37.076Z,15.20
2022-10-13T02:51:07.639Z,14.00
2022-10-13T02:51:40.452Z,12.80
2022-10-13T02:52:09.111Z,11.40
2022-10-13T02:52:39.788Z,14.40
2022-10-13T02:53:10.317Z,13.30
2022-10-13T02:53:40.876Z,12.00
2022-10-13T02:54:11.408Z,12.30
2022-10-13T02:54:41.961Z,13.00
2022-10-13T02:55:12.550Z,14.40
2022-10-13T02:55:43.127Z,13.00
2022-10-13T02:56:13.662Z,12.10
2022-10-13T02:56:44.207Z,11.40
2022-10-13T02:57:14.786Z,13.40
2022-10-13T02:57:45.361Z,12.90
2022-10-13T02:58:15.910Z,13.50
2022-10-13T02:58:46.478Z,11.40
2022-10-13T02:59:17.035Z,13.60
2022-10-13T02:59:47.634Z,13.00
2022-10-13T03:00:18.198Z,13.30
2022-10-13T03:00:48.823Z,14.50
2022-10-13T03:01:19.424Z,11.70
2022-10-13T03:01:50.028Z,11.60
2022-10-13T03:02:21.048Z,12.70
2022-10-13T03:02:51.335Z,11.90
2022-10-13T03:03:21.907Z,14.20
2022-10-13T03:03:52.489Z,12.40
2022-10-13T03:04:23.048Z,11.40
2022-10-13T03:04:53.614Z,12.60
2022-10-13T03:05:24.192Z,11.30
2022-10-13T03:05:54.759Z,11.40
2022-10-13T03:06:25.310Z,12.50
2022-10-13T03:06:55.883Z,12.00
2022-10-13T03:07:26.462Z,10.60
2022-10-13T03:07:57.026Z,12.10
2022-10-13T03:08:27.581Z,11.70
2022-10-13T03:08:58.117Z,11.70
2022-10-13T03:09:28.674Z,12.40
2022-10-13T03:09:59.265Z,13.10
2022-10-13T03:10:29.858Z,13.60
2022-10-13T03:11:00.423Z,13.80
2022-10-13T03:11:31.006Z,11.60
2022-10-13T03:12:01.592Z,11.00
2022-10-13T03:12:32.135Z,11.10
2022-10-13T03:13:02.717Z,12.10
2022-10-13T03:13:33.285Z,12.30
2022-10-13T03:14:03.812Z,11.00
2022-10-13T03:14:34.342Z,14.10
2022-10-13T03:15:04.913Z,11.50
2022-10-13T03:15:35.496Z,12.40
2022-10-13T03:16:06.040Z,10.10
2022-10-13T03:16:36.618Z,12.90
2022-10-13T03:17:11.124Z,13.80
2022-10-13T03:17:37.971Z,12.20
2022-10-13T03:18:08.528Z,10.30
2022-10-13T03:18:39.093Z,12.90
2022-10-13T03:19:09.618Z,11.20
2022-10-13T03:19:40.188Z,11.90
2022-10-13T03:20:10.726Z,12.10
2022-10-13T03:20:41.262Z,12.20
2022-10-13T03:21:11.813Z,13.10
2022-10-13T03:21:42.385Z,11.30
2022-10-13T03:22:12.921Z,12.20
2022-10-13T03:22:47.361Z,12.90
2022-10-13T03:23:14.416Z,11.80
2022-10-13T03:23:44.962Z,12.70
2022-10-13T03:24:15.500Z,12.90
2022-10-13T03:24:46.085Z,10.50
2022-10-13T03:25:16.655Z,11.40
2022-10-13T03:25:47.230Z,11.50
2022-10-13T03:26:17.789Z,11.20
2022-10-13T03:26:48.321Z,13.30
2022-10-13T03:27:18.897Z,11.20
2022-10-13T03:27:49.458Z,11.10
2022-10-13T03:28:20.084Z,12.50
2022-10-13T03:28:50.731Z,13.00
2022-10-13T03:29:21.291Z,12.90
2022-10-13T03:29:51.847Z,12.00
2022-10-13T03:30:22.395Z,11.60
2022-10-13T03:30:52.967Z,11.80
2022-10-13T03:31:23.492Z,10.90
2022-10-13T03:31:54.068Z,12.60
2022-10-13T03:32:24.639Z,11.30
2022-10-13T03:32:55.176Z,11.80
2022-10-13T03:33:25.737Z,11.70
2022-10-13T03:33:56.331Z,9.70
2022-10-13T03:34:26.908Z,10.80
2022-10-13T03:34:57.442Z,10.40
2022-10-13T03:35:28.021Z,10.20
2022-10-13T03:35:58.594Z,11.40
2022-10-13T03:36:29.170Z,11.40
2022-10-13T03:36:59.701Z,12.00
2022-10-13T03:37:30.261Z,11.80
2022-10-13T03:38:00.797Z,12.60
2022-10-13T03:38:31.548Z,12.10
2022-10-13T03:39:02.080Z,13.00
2022-10-13T03:39:32.638Z,11.30
2022-10-13T03:40:03.201Z,11.70
2022-10-13T03:40:33.811Z,11.50
2022-10-13T03:41:04.344Z,12.70
2022-10-13T03:41:34.910Z,11.70
2022-10-13T03:42:05.476Z,11.10
2022-10-13T03:42:36.022Z,14.10
2022-10-13T03:43:06.570Z,10.10
2022-10-13T03:43:37.164Z,12.80
2022-10-13T03:44:07.688Z,11.10
2022-10-13T03:44:38.245Z,12.00
2022-10-13T03:45:08.772Z,10.60
2022-10-13T03:45:39.321Z,11.50
2022-10-13T03:46:09.908Z,13.70
2022-10-13T03:46:40.460Z,12.10
2022-10-13T03:47:11.029Z,10.70
2022-10-13T03:47:41.805Z,11.70
2022-10-13T03:48:12.368Z,13.50
2022-10-13T03:48:42.910Z,10.70
2022-10-13T03:49:13.473Z,11.50
2022-10-13T03:49:44.513Z,12.80
2022-10-13T03:50:15.069Z,13.10
2022-10-13T03:50:45.616Z,10.40
2022-10-13T03:51:16.177Z,10.80
2022-10-13T03:51:46.732Z,13.50
2022-10-13T03:52:17.731Z,11.60
2022-10-13T03:52:47.990Z,12.10
2022-10-13T03:53:18.658Z,10.60
2022-10-13T03:53:49.268Z,11.10
2022-10-13T03:54:19.793Z,11.60
2022-10-13T03:54:50.377Z,13.70
2022-10-13T03:55:20.934Z,10.40
2022-10-13T03:55:51.479Z,13.70
2022-10-13T03:56:22.069Z,10.70
2022-10-13T03:56:52.638Z,11.20
2022-10-13T03:57:23.207Z,12.30
2022-10-13T03:57:53.777Z,11.00
2022-10-13T03:58:24.328Z,15.00
2022-10-13T03:58:54.883Z,12.00
2022-10-13T03:59:25.410Z,10.80
2022-10-13T03:59:55.959Z,10.60
2022-10-13T04:00:26.490Z,12.60
2022-10-13T04:00:57.025Z,11.90
2022-10-13T04:01:27.669Z,12.50
2022-10-13T04:01:58.245Z,11.80
2022-10-13T04:02:28.790Z,12.80
2022-10-13T04:02:59.335Z,11.40
2022-10-13T04:03:29.892Z,11.80
2022-10-13T04:04:00.438Z,12.90
2022-10-13T04:04:31.006Z,11.90
2022-10-13T04:05:01.588Z,12.00
2022-10-13T04:05:32.155Z,12.50
2022-10-13T04:06:02.710Z,10.80
2022-10-13T04:06:33.289Z,10.70
2022-10-13T04:07:03.810Z,12.00
2022-10-13T04:07:34.369Z,11.60
2022-10-13T04:08:04.949Z,11.20
2022-10-13T04:08:35.512Z,14.00
2022-10-13T04:09:06.110Z,9.70
2022-10-13T04:09:36.636Z,11.40
2022-10-13T04:10:11.270Z,12.60
2022-10-13T04:10:37.911Z,12.30
2022-10-13T04:11:08.474Z,10.30
2022-10-13T04:11:39.040Z,12.70
2022-10-13T04:12:09.634Z,10.40
2022-10-13T04:12:40.212Z,9.90
2022-10-13T04:13:10.765Z,10.40
2022-10-13T04:13:41.339Z,9.20
2022-10-13T04:14:11.916Z,11.80
2022-10-13T04:14:42.437Z,10.50
2022-10-13T04:15:13.021Z,11.00
2022-10-13T04:15:43.585Z,11.60
2022-10-13T04:16:14.154Z,13.60
2022-10-13T04:16:44.707Z,10.90
2022-10-13T04:17:15.245Z,12.60
2022-10-13T04:17:45.786Z,12.30
2022-10-13T04:18:16.359Z,12.30
2022-10-13T04:18:46.896Z,11.30
2022-10-13T04:19:17.421Z,12.10
2022-10-13T04:19:47.993Z,10.50
2022-10-13T04:20:18.553Z,11.30
2022-10-13T04:20:49.122Z,10.90
2022-10-13T04:21:19.687Z,9.70
2022-10-13T04:21:50.221Z,11.60
2022-10-13T04:22:21.085Z,13.90
2022-10-13T04:22:51.369Z,10.70
2022-10-13T04:23:21.958Z,10.50
2022-10-13T04:23:52.563Z,12.10
2022-10-13T04:24:23.150Z,10.90
2022-10-13T04:24:53.715Z,10.40
2022-10-13T04:25:24.254Z,10.10
2022-10-13T04:25:54.833Z,11.70
2022-10-13T04:26:25.425Z,10.40
2022-10-13T04:26:56.019Z,12.00
2022-10-13T04:27:26.586Z,11.50
2022-10-13T04:27:57.162Z,13.30
2022-10-13T04:28:27.729Z,10.20
2022-10-13T04:28:58.300Z,10.50
2022-10-13T04:29:28.886Z,12.40
2022-10-13T04:29:59.429Z,11.40
2022-10-13T04:30:29.995Z,10.90
2022-10-13T04:31:00.544Z,10.50
2022-10-13T04:31:31.117Z,10.30
2022-10-13T04:32:01.648Z,12.90
2022-10-13T04:32:32.240Z,15.20
2022-10-13T04:33:02.820Z,14.50
2022-10-13T04:33:33.373Z,17.70
2022-10-13T04:34:03.935Z,13.70
2022-10-13T04:34:34.495Z,15.00
2022-10-13T04:35:05.042Z,15.60
2022-10-13T04:35:35.611Z,15.30
2022-10-13T04:36:06.167Z,13.60
2022-10-13T04:36:36.720Z,14.80
2022-10-13T04:37:07.286Z,13.60
2022-10-13T04:37:40.546Z,12.60
2022-10-13T04:38:08.600Z,13.40
2022-10-13T04:38:39.161Z,13.10
2022-10-13T04:39:09.720Z,14.20
2022-10-13T04:39:40.319Z,13.60
2022-10-13T04:40:10.847Z,11.30
2022-10-13T04:40:41.429Z,11.40
2022-10-13T04:41:11.980Z,12.30
2022-10-13T04:41:42.537Z,13.10
2022-10-13T04:42:13.074Z,12.80
2022-10-13T04:42:43.638Z,11.40
2022-10-13T04:43:14.237Z,11.70
2022-10-13T04:43:44.806Z,10.80
2022-10-13T04:44:15.355Z,12.20
2022-10-13T04:44:45.912Z,13.50
2022-10-13T04:45:16.496Z,11.60
2022-10-13T04:45:47.089Z,15.00
2022-10-13T04:46:17.630Z,11.80
2022-10-13T04:46:48.193Z,12.40
2022-10-13T04:47:18.764Z,12.70
2022-10-13T04:47:49.308Z,11.90
2022-10-13T04:48:19.901Z,11.60
2022-10-13T04:48:50.465Z,13.00
2022-10-13T04:49:21.006Z,12.10
2022-10-13T04:49:51.579Z,11.70
2022-10-13T04:50:22.155Z,14.50
2022-10-13T04:50:52.682Z,11.90
2022-10-13T04:51:23.242Z,12.50
2022-10-13T04:51:53.785Z,12.10
2022-10-13T04:52:24.341Z,11.20
2022-10-13T04:52:54.878Z,11.90
2022-10-13T04:53:25.465Z,13.50
2022-10-13T04:53:56.032Z,10.80
2022-10-13T04:54:26.607Z,13.00
2022-10-13T04:54:57.191Z,12.70
2022-10-13T04:55:27.745Z,13.50
2022-10-13T04:55:58.282Z,11.80
2022-10-13T04:56:28.860Z,12.20
2022-10-13T04:56:59.415Z,11.00
2022-10-13T04:57:29.978Z,11.30
2022-10-13T04:58:00.522Z,12.40
2022-10-13T04:58:31.093Z,12.40
2022-10-13T04:59:01.698Z,11.30
2022-10-13T04:59:32.265Z,12.40
2022-10-13T05:00:02.845Z,13.30
2022-10-13T05:00:33.482Z,11.80
2022-10-13T05:01:04.079Z,12.30
2022-10-13T05:01:34.640Z,11.70
2022-10-13T05:02:05.192Z,13.70
2022-10-13T05:02:35.723Z,12.40
2022-10-13T05:03:06.351Z,11.20
2022-10-13T05:03:36.959Z,12.60
2022-10-13T05:04:07.549Z,13.40
2022-10-13T05:04:38.110Z,12.30
2022-10-13T05:05:08.663Z,11.40
2022-10-13T05:05:39.243Z,11.60
2022-10-13T05:06:09.791Z,12.30
2022-10-13T05:06:58.914Z,11.40
2022-10-13T05:07:17.948Z,13.70
2022-10-13T05:07:41.943Z,12.00
2022-10-13T05:08:12.532Z,12.30
2022-10-13T05:08:43.116Z,13.40
2022-10-13T05:09:13.650Z,10.90
2022-10-13T05:09:44.246Z,10.90
2022-10-13T05:10:14.896Z,10.80
2022-10-13T05:10:45.444Z,11.60
2022-10-13T05:11:16.121Z,13.30
2022-10-13T05:11:46.692Z,10.40
2022-10-13T05:12:17.543Z,11.80
2022-10-13T05:12:48.254Z,10.60
2022-10-13T05:13:18.792Z,12.10
2022-10-13T05:13:50.526Z,13.10
2022-10-13T05:14:20.518Z,12.20
2022-10-13T05:14:51.586Z,11.40
2022-10-13T05:15:22.155Z,12.20
2022-10-13T05:15:52.695Z,13.00
2022-10-13T05:16:23.718Z,11.60
2022-10-13T05:16:54.773Z,10.80
2022-10-13T05:17:25.317Z,12.50
2022-10-13T05:17:55.833Z,11.80
2022-10-13T05:18:26.390Z,11.80
2022-10-13T05:18:56.892Z,14.30
2022-10-13T05:19:27.444Z,13.00
2022-10-13T05:19:57.944Z,12.30
2022-10-13T05:20:28.467Z,14.30
2022-10-13T05:20:59.504Z,10.70
2022-10-13T05:21:30.530Z,12.20
2022-10-13T05:22:01.058Z,10.20
2022-10-13T05:22:32.059Z,12.50
2022-10-13T05:23:03.058Z,12.60
2022-10-13T05:23:34.113Z,13.60
2022-10-13T05:24:05.136Z,13.20
2022-10-13T05:24:36.192Z,11.70
2022-10-13T05:25:06.700Z,10.80
2022-10-13T05:25:37.713Z,14.10
2022-10-13T05:26:08.724Z,10.80
2022-10-13T05:26:39.247Z,11.80
2022-10-13T05:27:10.254Z,11.10
2022-10-13T05:27:41.291Z,11.60
2022-10-13T05:28:12.462Z,11.90
2022-10-13T05:28:43.026Z,11.20
2022-10-13T05:29:13.544Z,15.80
2022-10-13T05:29:44.561Z,11.30
2022-10-13T05:30:15.080Z,11.40
2022-10-13T05:30:46.099Z,12.20
2022-10-13T05:31:16.621Z,12.40
2022-10-13T05:31:47.649Z,11.10
2022-10-13T05:32:19.061Z,13.00
2022-10-13T05:32:53.687Z,13.50
2022-10-13T05:33:20.359Z,11.30
2022-10-13T05:33:50.873Z,12.90
2022-10-13T05:34:21.402Z,13.40
2022-10-13T05:34:52.430Z,12.50
2022-10-13T05:35:23.443Z,12.40
2022-10-13T05:35:54.446Z,11.80
2022-10-13T05:36:24.982Z,11.80
2022-10-13T05:36:55.507Z,13.10
2022-10-13T05:37:26.556Z,11.40
2022-10-13T05:37:57.058Z,11.80
2022-10-13T05:38:28.059Z,13.20
2022-10-13T05:38:58.580Z,11.20
2022-10-13T05:39:29.615Z,12.20
2022-10-13T05:40:00.136Z,12.30
2022-10-13T05:40:31.177Z,10.60
2022-10-13T05:41:01.716Z,11.70
2022-10-13T05:41:32.718Z,12.60
2022-10-13T05:42:03.746Z,12.10
2022-10-13T05:42:34.269Z,12.40
2022-10-13T05:43:04.800Z,12.60
2022-10-13T05:43:35.324Z,12.60
2022-10-13T05:44:05.845Z,11.20
2022-10-13T05:44:36.915Z,11.60
2022-10-13T05:45:07.440Z,12.90
2022-10-13T05:45:38.437Z,12.40
2022-10-13T05:46:08.968Z,13.20
2022-10-13T05:46:39.492Z,13.10
2022-10-13T05:47:10.017Z,13.50
2022-10-13T05:47:41.027Z,13.90
2022-10-13T05:48:11.564Z,11.60
2022-10-13T05:48:42.067Z,15.30
2022-10-13T05:49:13.093Z,12.90
2022-10-13T05:49:43.628Z,12.90
2022-10-13T05:50:14.625Z,13.10
2022-10-13T05:50:45.178Z,11.80
2022-10-13T05:51:15.709Z,13.60
2022-10-13T05:51:46.747Z,12.40
2022-10-13T05:52:17.668Z,13.00
2022-10-13T05:52:47.831Z,12.70
2022-10-13T05:53:18.846Z,14.00
2022-10-13T05:53:52.946Z,13.00
2022-10-13T05:54:20.093Z,12.20
2022-10-13T05:54:51.143Z,12.60
2022-10-13T05:55:21.679Z,12.10
2022-10-13T05:55:52.687Z,13.60
2022-10-13T05:56:23.731Z,14.40
2022-10-13T05:56:54.733Z,12.50
2022-10-13T05:57:25.759Z,13.60
2022-10-13T05:57:56.789Z,13.90
2022-10-13T05:58:27.823Z,14.70
2022-10-13T05:58:58.846Z,13.00
2022-10-13T05:59:29.360Z,12.10
2022-10-13T06:00:00.412Z,12.30
2022-10-13T06:00:30.931Z,12.20
2022-10-13T06:01:01.957Z,12.60
2022-10-13T06:01:33.071Z,14.30
2022-10-13T06:02:03.596Z,13.80
2022-10-13T06:02:34.099Z,13.90
2022-10-13T06:03:04.621Z,12.00
2022-10-13T06:03:35.630Z,13.70
2022-10-13T06:04:06.658Z,14.20
2022-10-13T06:04:37.677Z,12.20
2022-10-13T06:05:08.695Z,12.30
2022-10-13T06:05:39.688Z,14.60
2022-10-13T06:06:10.729Z,15.60
2022-10-13T06:06:41.271Z,15.70
2022-10-13T06:07:12.296Z,13.30
2022-10-13T06:07:43.299Z,13.40
2022-10-13T06:08:14.341Z,14.20
2022-10-13T06:08:45.402Z,13.20
2022-10-13T06:09:15.920Z,10.90
2022-10-13T06:09:46.975Z,12.00
2022-10-13T06:10:17.475Z,11.10
2022-10-13T06:10:48.505Z,10.70
2022-10-13T06:11:19.038Z,13.60
2022-10-13T06:11:50.106Z,13.20
2022-10-13T06:12:21.430Z,11.70
2022-10-13T06:12:52.124Z,11.40
2022-10-13T06:13:23.146Z,12.00
2022-10-13T06:13:53.664Z,10.90
2022-10-13T06:14:24.709Z,12.20
2022-10-13T06:14:55.223Z,15.20
2022-10-13T06:15:28.105Z,11.90
2022-10-13T06:15:56.350Z,12.00
2022-10-13T06:16:27.337Z,13.60
2022-10-13T06:16:58.374Z,13.50
2022-10-13T06:17:28.898Z,14.00
2022-10-13T06:17:59.899Z,12.70
2022-10-13T06:18:30.920Z,11.60
2022-10-13T06:19:01.964Z,12.10
2022-10-13T06:19:32.507Z,12.10
2022-10-13T06:20:03.045Z,12.10
2022-10-13T06:20:33.563Z,12.70
2022-10-13T06:21:04.592Z,12.80
2022-10-13T06:21:35.590Z,11.40
2022-10-13T06:22:06.581Z,11.50
2022-10-13T06:22:37.103Z,11.80
2022-10-13T06:23:08.115Z,13.90
2022-10-13T06:23:39.158Z,13.10
2022-10-13T06:24:09.681Z,13.50
2022-10-13T06:24:40.718Z,11.20
2022-10-13T06:25:11.745Z,14.20
2022-10-13T06:25:42.777Z,12.70
2022-10-13T06:26:13.298Z,15.10
2022-10-13T06:26:44.321Z,15.70
2022-10-13T06:27:15.392Z,13.00
2022-10-13T06:27:45.865Z,12.80
2022-10-13T06:28:16.915Z,12.90
2022-10-13T06:28:50.157Z,13.70
2022-10-13T06:29:18.086Z,12.80
2022-10-13T06:29:49.088Z,15.00
2022-10-13T06:30:20.112Z,14.10
2022-10-13T06:30:51.149Z,14.00
2022-10-13T06:31:22.515Z,13.20
2022-10-13T06:31:52.507Z,12.50
2022-10-13T06:32:23.753Z,14.60
2022-10-13T06:32:54.241Z,12.30
2022-10-13T06:33:24.763Z,11.80
2022-10-13T06:33:55.787Z,14.80
2022-10-13T06:34:26.799Z,14.50